Time;durP1;ratioP1;P1;durP2;ratioP2;P2;SDS_P1;SDS_P2;PMS_P1;PMS_P2;Temp;Humidity;BMP_temperature;BMP_pressure;BME280_temperature;BME280_humidity;BME280_pressure;Samples;Min_cycle;Max_cycle;Signal;HPM_P1;HPM_P2
2022/03/02 00:00:10;;;;;;;29.88;18.02;;;7.30;99.90;;;;;;5032515;28;20026;-82
2022/03/02 00:02:36;;;;;;;31.30;17.70;;;7.30;99.90;;;;;;5044113;28;20099;-82
2022/03/02 00:05:02;;;;;;;30.08;18.20;;;7.20;99.90;;;;;;5030408;28;20402;-82
2022/03/02 00:07:28;;;;;;;37.33;19.08;;;7.20;99.90;;;;;;5035326;28;20021;-82
2022/03/02 00:09:53;;;;;;;29.85;18.30;;;7.20;99.90;;;;;;5036434;28;20083;-82
2022/03/02 00:12:19;;;;;;;30.85;17.08;;;7.20;99.90;;;;;;5045945;28;20116;-82
2022/03/02 00:14:45;;;;;;;32.75;19.45;;;7.20;99.90;;;;;;5033531;28;20370;-82
2022/03/02 00:17:11;;;;;;;34.53;19.27;;;7.20;99.90;;;;;;5031852;28;20029;-82
2022/03/02 00:19:37;;;;;;;35.10;18.55;;;7.20;99.90;;;;;;5044266;28;20029;-83
2022/03/02 00:22:04;;;;;;;35.65;20.10;;;7.20;99.90;;;;;;5036709;28;20081;-82
2022/03/02 00:24:29;;;;;;;34.67;19.38;;;7.20;99.90;;;;;;5037203;28;20054;-82
2022/03/02 00:26:55;;;;;;;34.35;20.52;;;7.10;99.90;;;;;;5051354;28;20067;-82
2022/03/02 00:29:21;;;;;;;32.05;19.27;;;7.10;99.90;;;;;;5038888;28;20021;-81
2022/03/02 00:31:46;;;;;;;29.80;18.70;;;7.10;99.90;;;;;;5039445;28;20029;-82
2022/03/02 00:34:12;;;;;;;33.63;18.73;;;7.10;99.90;;;;;;5035335;28;20370;-82
2022/03/02 00:36:38;;;;;;;30.55;18.27;;;7.00;99.90;;;;;;5032646;28;20167;-81
2022/03/02 00:39:05;;;;;;;27.77;17.63;;;7.00;99.90;;;;;;5032834;28;20026;-82
2022/03/02 00:41:30;;;;;;;35.22;18.73;;;7.00;99.90;;;;;;5027710;28;20030;-82
2022/03/02 00:43:56;;;;;;;32.60;18.33;;;7.00;99.90;;;;;;5025971;28;20390;-82
2022/03/02 00:46:29;;;;;;;33.08;19.20;;;7.00;99.90;;;;;;5032904;28;20037;-83
2022/03/02 00:48:55;;;;;;;;;;;6.90;99.90;;;;;;5030123;28;20029;-80
2022/03/02 00:51:21;;;;;;;38.67;19.67;;;6.90;99.90;;;;;;5023864;28;20028;-81
2022/03/02 00:53:47;;;;;;;36.00;20.63;;;6.90;99.90;;;;;;5038005;28;20137;-82
2022/03/02 00:56:12;;;;;;;33.22;19.60;;;6.90;99.90;;;;;;5025389;28;20108;-82
2022/03/02 00:58:38;;;;;;;35.35;19.60;;;6.90;99.90;;;;;;5030289;28;20033;-81
2022/03/02 01:01:03;;;;;;;33.92;19.25;;;6.90;99.90;;;;;;5025762;28;20452;-82
2022/03/02 01:03:29;;;;;;;32.35;18.85;;;6.90;99.90;;;;;;5038851;28;20032;-82
2022/03/02 01:05:55;;;;;;;33.45;19.80;;;6.80;99.90;;;;;;5037599;28;20029;-82
2022/03/02 01:08:20;;;;;;;34.75;20.05;;;6.80;99.90;;;;;;5039804;28;20440;-83
2022/03/02 01:10:46;;;;;;;32.35;18.40;;;6.70;99.90;;;;;;5037197;28;20026;-82
2022/03/02 01:13:12;;;;;;;34.55;19.25;;;6.70;99.90;;;;;;5029535;28;20113;-83
2022/03/02 01:15:38;;;;;;;38.63;20.42;;;6.70;99.90;;;;;;5036678;28;20041;-83
2022/03/02 01:18:04;;;;;;;36.45;19.20;;;6.60;99.90;;;;;;5038054;28;20527;-83
2022/03/02 01:20:30;;;;;;;31.00;18.65;;;6.70;99.90;;;;;;5051146;28;20041;-83
2022/03/02 01:22:55;;;;;;;31.13;18.50;;;6.60;99.90;;;;;;5046943;28;20104;-80
2022/03/02 01:25:21;;;;;;;31.92;17.58;;;6.70;99.90;;;;;;5038460;28;20569;-82
2022/03/02 01:27:47;;;;;;;32.42;18.50;;;6.60;99.90;;;;;;5042474;28;20029;-82
2022/03/02 01:30:12;;;;;;;33.25;19.48;;;6.50;99.90;;;;;;5040369;28;20509;-83
2022/03/02 01:32:38;;;;;;;33.45;19.67;;;6.60;99.90;;;;;;5030642;28;20194;-82
2022/03/02 01:35:04;;;;;;;37.17;20.20;;;6.60;99.90;;;;;;5043757;28;20025;-83
2022/03/02 01:37:30;;;;;;;30.83;18.63;;;6.60;99.90;;;;;;5046145;28;20059;-82
2022/03/02 01:39:56;;;;;;;36.25;18.55;;;6.60;99.90;;;;;;5043318;28;20052;-82
2022/03/02 01:42:22;;;;;;;30.20;17.75;;;6.50;99.90;;;;;;5040199;28;20116;-82
2022/03/02 01:44:48;;;;;;;29.80;18.42;;;6.50;99.90;;;;;;5048441;28;20029;-81
2022/03/02 01:47:13;;;;;;;31.17;18.42;;;6.50;99.90;;;;;;5049454;28;20410;-81
2022/03/02 01:49:39;;;;;;;31.42;19.25;;;6.50;99.90;;;;;;5040012;28;20420;-81
2022/03/02 01:52:04;;;;;;;32.10;20.13;;;6.50;99.90;;;;;;5039145;28;20037;-81
2022/03/02 01:54:30;;;;;;;32.58;19.80;;;6.40;99.90;;;;;;5032443;28;20053;-81
2022/03/02 01:56:56;;;;;;;31.80;18.88;;;6.40;99.90;;;;;;5031703;28;20053;-81
2022/03/02 01:59:21;;;;;;;33.47;19.65;;;6.30;99.90;;;;;;5035785;28;20025;-81
2022/03/02 02:01:48;;;;;;;32.08;19.95;;;6.30;99.90;;;;;;5039849;28;20064;-81
2022/03/02 02:04:14;;;;;;;35.97;19.88;;;6.30;99.90;;;;;;5043226;28;20033;-82
2022/03/02 02:06:39;;;;;;;37.47;20.65;;;6.30;99.90;;;;;;5026804;28;20553;-81
2022/03/02 02:09:07;;;;;;;40.22;21.90;;;6.30;99.90;;;;;;5036981;28;20034;-81
2022/03/02 02:11:33;;;;;;;30.90;20.05;;;6.20;99.90;;;;;;5034436;28;20057;-81
2022/03/02 02:13:59;;;;;;;35.38;20.42;;;6.20;99.90;;;;;;5042118;28;20065;-81
2022/03/02 02:16:24;;;;;;;32.92;19.45;;;6.20;99.90;;;;;;5037645;28;20025;-80
2022/03/02 02:18:51;;;;;;;35.03;19.38;;;6.20;99.90;;;;;;5031941;28;20071;-81
2022/03/02 02:21:19;;;;;;;32.85;19.23;;;6.20;99.90;;;;;;5037082;28;20385;-81
2022/03/02 02:23:45;;;;;;;36.40;19.20;;;6.20;99.90;;;;;;5028810;28;20061;-81
2022/03/02 02:26:11;;;;;;;33.47;18.90;;;6.20;99.90;;;;;;5042435;28;20025;-80
2022/03/02 02:28:36;;;;;;;37.15;19.20;;;6.10;99.90;;;;;;5039143;28;20087;-81
2022/03/02 02:31:03;;;;;;;35.70;20.80;;;6.10;99.90;;;;;;5036376;28;20386;-80
2022/03/02 02:33:29;;;;;;;34.47;19.08;;;6.10;99.90;;;;;;5026904;28;20510;-81
2022/03/02 02:35:56;;;;;;;35.17;20.13;;;6.10;99.90;;;;;;5040034;28;20029;-81
2022/03/02 02:38:22;;;;;;;35.42;19.50;;;6.10;99.90;;;;;;5038796;28;20032;-80
2022/03/02 02:40:50;;;;;;;35.17;20.60;;;6.10;99.90;;;;;;5030324;28;20018;-81
2022/03/02 02:43:17;;;;;;;35.92;21.00;;;6.10;99.90;;;;;;5036461;28;20078;-81
2022/03/02 02:45:44;;;;;;;36.28;20.60;;;6.10;99.90;;;;;;5037159;28;20075;-81
2022/03/02 02:48:09;;;;;;;43.88;20.35;;;6.00;99.90;;;;;;5042157;28;20108;-80
2022/03/02 02:50:36;;;;;;;32.28;18.30;;;6.10;99.90;;;;;;5032511;28;20351;-81
2022/03/02 02:53:06;;;;;;;32.00;18.85;;;6.00;99.90;;;;;;5029937;28;20045;-81
2022/03/02 02:55:32;;;;;;;32.25;17.77;;;6.00;99.90;;;;;;5037769;28;20024;-81
2022/03/02 02:57:59;;;;;;;33.85;18.73;;;6.00;99.90;;;;;;5039147;28;20454;-82
2022/03/02 03:00:28;;;;;;;31.35;18.60;;;6.00;99.90;;;;;;5022913;28;20026;-81
2022/03/02 03:02:54;;;;;;;31.45;18.98;;;5.90;99.90;;;;;;5038299;28;20028;-81
2022/03/02 03:05:24;;;;;;;30.65;17.83;;;5.90;99.90;;;;;;5024730;28;20440;-81
2022/03/02 03:07:53;;;;;;;31.13;18.77;;;5.90;99.90;;;;;;5039726;28;20108;-81
2022/03/02 03:10:19;;;;;;;34.08;20.08;;;5.90;99.90;;;;;;5022632;28;20033;-81
2022/03/02 03:12:46;;;;;;;36.65;19.77;;;5.90;99.90;;;;;;5026113;28;20029;-81
2022/03/02 03:15:14;;;;;;;34.45;19.02;;;5.90;99.90;;;;;;5042635;28;20096;-82
2022/03/02 03:17:40;;;;;;;30.33;17.73;;;5.90;99.90;;;;;;5030758;28;20035;-80
2022/03/02 03:20:08;;;;;;;34.88;19.17;;;5.90;99.90;;;;;;5029235;28;20040;-81
2022/03/02 03:22:34;;;;;;;37.55;21.40;;;5.90;99.90;;;;;;5042650;28;20035;-80
2022/03/02 03:25:00;;;;;;;33.45;18.73;;;5.90;99.90;;;;;;5031686;28;20509;-80
2022/03/02 03:27:26;;;;;;;31.20;17.02;;;5.90;99.90;;;;;;5039719;28;20120;-80
2022/03/02 03:29:52;;;;;;;32.90;18.45;;;5.80;99.90;;;;;;5038221;28;20101;-81
2022/03/02 03:32:17;;;;;;;32.95;18.17;;;5.80;99.90;;;;;;5034804;28;20422;-81
2022/03/02 03:34:43;;;;;;;32.10;19.00;;;5.80;99.90;;;;;;5031958;28;20013;-82
2022/03/02 03:37:09;;;;;;;31.70;17.25;;;5.80;99.90;;;;;;5034678;28;20028;-80
2022/03/02 03:39:35;;;;;;;31.27;18.45;;;5.80;99.90;;;;;;5026834;28;20076;-81
2022/03/02 03:42:01;;;;;;;36.70;18.13;;;5.80;99.90;;;;;;5042153;28;20030;-81
2022/03/02 03:44:27;;;;;;;38.28;19.40;;;5.70;99.90;;;;;;5032469;28;20446;-81
2022/03/02 03:46:52;;;;;;;31.95;18.50;;;5.70;99.90;;;;;;5030116;28;20032;-81
2022/03/02 03:49:18;;;;;;;38.85;21.08;;;5.80;99.90;;;;;;5042906;28;20060;-81
2022/03/02 03:51:44;;;;;;;34.33;19.48;;;5.80;99.90;;;;;;5040041;28;20120;-81
2022/03/02 03:54:10;;;;;;;32.63;18.83;;;5.70;99.90;;;;;;5028971;28;20393;-81
2022/03/02 03:56:36;;;;;;;32.10;18.65;;;5.80;99.90;;;;;;5033986;28;20084;-81
2022/03/02 03:59:02;;;;;;;31.13;19.17;;;5.70;99.90;;;;;;5025200;28;20021;-79
2022/03/02 04:01:28;;;;;;;32.03;19.83;;;5.70;99.90;;;;;;5023130;28;20032;-81
2022/03/02 04:03:54;;;;;;;32.28;19.20;;;5.70;99.90;;;;;;5036629;28;20108;-81
2022/03/02 04:06:20;;;;;;;33.13;18.95;;;5.70;99.90;;;;;;5036045;28;20025;-80
2022/03/02 04:08:45;;;;;;;35.83;21.42;;;5.70;99.90;;;;;;5027090;28;20033;-80
2022/03/02 04:11:11;;;;;;;35.20;19.60;;;5.70;99.90;;;;;;5036202;28;20025;-80
2022/03/02 04:13:36;;;;;;;34.30;19.75;;;5.70;99.90;;;;;;5029457;28;20033;-80
2022/03/02 04:16:03;;;;;;;29.60;17.85;;;5.70;99.90;;;;;;5028437;28;20021;-80
2022/03/02 04:18:31;;;;;;;32.25;18.25;;;5.70;99.90;;;;;;5032003;28;20021;-80
2022/03/02 04:21:00;;;;;;;33.65;18.42;;;5.70;99.90;;;;;;5035675;28;20108;-79
2022/03/02 04:23:27;;;;;;;38.13;19.33;;;5.70;99.90;;;;;;5030182;28;20112;-80
2022/03/02 04:25:53;;;;;;;34.50;19.00;;;5.70;99.90;;;;;;5037182;28;20112;-80
2022/03/02 04:28:20;;;;;;;33.45;18.38;;;5.60;99.90;;;;;;5034429;28;20033;-80
2022/03/02 04:30:46;;;;;;;32.33;19.42;;;5.60;99.90;;;;;;5032126;28;20501;-79
2022/03/02 04:33:12;;;;;;;31.35;18.50;;;5.60;99.90;;;;;;5028363;28;20496;-80
2022/03/02 04:35:39;;;;;;;34.38;19.42;;;5.60;99.90;;;;;;5035201;28;20021;-80
2022/03/02 04:38:05;;;;;;;31.60;18.35;;;5.60;99.90;;;;;;5028445;28;20053;-81
2022/03/02 04:40:31;;;;;;;30.63;17.35;;;5.60;99.90;;;;;;5030770;28;20018;-81
2022/03/02 04:42:57;;;;;;;31.40;17.90;;;5.60;99.90;;;;;;5023338;28;20108;-80
2022/03/02 04:45:27;;;;;;;34.00;19.45;;;5.60;99.90;;;;;;5039534;28;20517;-80
2022/03/02 04:47:55;;;;;;;33.88;19.42;;;5.50;99.90;;;;;;5041701;28;20036;-81
2022/03/02 04:50:22;;;;;;;32.03;18.15;;;5.50;99.90;;;;;;5028386;28;20488;-80
2022/03/02 04:52:49;;;;;;;31.48;18.42;;;5.50;99.90;;;;;;5033532;28;20033;-80
2022/03/02 04:55:16;;;;;;;31.50;18.42;;;5.40;99.90;;;;;;5035470;28;20022;-81
2022/03/02 04:57:45;;;;;;;32.35;17.85;;;5.40;99.90;;;;;;5022906;28;21005;-81
2022/03/02 05:00:15;;;;;;;32.30;18.90;;;5.40;99.90;;;;;;5024668;28;20030;-81
2022/03/02 05:02:41;;;;;;;34.40;19.27;;;5.40;99.90;;;;;;5034215;28;20040;-80
2022/03/02 05:05:13;;;;;;;33.60;19.80;;;5.40;99.90;;;;;;5034705;28;20021;-80
2022/03/02 05:07:40;;;;;;;33.95;17.98;;;5.40;99.90;;;;;;5034514;28;20021;-79
2022/03/02 05:10:06;;;;;;;30.30;17.70;;;5.40;99.90;;;;;;5033677;28;20158;-80
2022/03/02 05:12:33;;;;;;;29.73;16.60;;;5.30;99.90;;;;;;5036403;28;20447;-80
2022/03/02 05:14:58;;;;;;;31.88;16.00;;;5.30;99.90;;;;;;5027598;28;20017;-80
2022/03/02 05:17:24;;;;;;;38.38;17.95;;;5.30;99.90;;;;;;5040151;28;20470;-80
2022/03/02 05:19:50;;;;;;;30.48;18.48;;;5.30;99.90;;;;;;5034957;28;20040;-79
2022/03/02 05:22:16;;;;;;;32.88;17.25;;;5.30;99.90;;;;;;5036953;28;20053;-80
2022/03/02 05:24:42;;;;;;;27.60;17.15;;;5.30;99.90;;;;;;5048525;28;20096;-80
2022/03/02 05:27:08;;;;;;;32.65;17.65;;;5.20;99.90;;;;;;5048153;28;20106;-80
2022/03/02 05:29:34;;;;;;;32.88;18.67;;;5.20;99.90;;;;;;5035067;28;20057;-81
2022/03/02 05:32:00;;;;;;;29.83;17.95;;;5.20;99.90;;;;;;5029466;28;20048;-82
2022/03/02 05:34:26;;;;;;;33.42;18.50;;;5.20;99.90;;;;;;5047046;28;20024;-83
2022/03/02 05:36:52;;;;;;;31.73;18.17;;;5.20;99.90;;;;;;5035361;28;20045;-83
2022/03/02 05:39:18;;;;;;;30.58;18.42;;;5.20;99.90;;;;;;5033716;28;20107;-82
2022/03/02 05:41:44;;;;;;;32.10;17.85;;;5.10;99.90;;;;;;5037601;28;20427;-82
2022/03/02 05:44:11;;;;;;;29.77;17.42;;;5.10;99.90;;;;;;5042483;28;20100;-82
2022/03/02 05:46:37;;;;;;;30.52;17.65;;;5.10;99.90;;;;;;5045165;28;20013;-81
2022/03/02 05:49:05;;;;;;;27.35;16.80;;;5.10;99.90;;;;;;5041609;28;20082;-82
2022/03/02 05:51:31;;;;;;;35.80;18.13;;;5.10;99.90;;;;;;5029918;28;20033;-81
2022/03/02 05:53:58;;;;;;;29.02;18.20;;;5.10;99.90;;;;;;5033536;28;20024;-82
2022/03/02 05:56:24;;;;;;;31.65;17.92;;;5.10;99.90;;;;;;5032850;28;20030;-81
2022/03/02 05:58:53;;;;;;;32.33;18.17;;;5.10;99.90;;;;;;5035712;28;20036;-81
2022/03/02 06:01:20;;;;;;;28.42;16.98;;;5.00;99.90;;;;;;5034658;28;20029;-81
2022/03/02 06:03:46;;;;;;;30.48;18.27;;;5.10;99.90;;;;;;5031738;28;20014;-80
2022/03/02 06:06:13;;;;;;;30.70;18.70;;;5.00;99.90;;;;;;5046841;28;20428;-81
2022/03/02 06:08:38;;;;;;;32.22;18.38;;;5.00;99.90;;;;;;5046174;28;20052;-81
2022/03/02 06:11:04;;;;;;;34.58;18.10;;;5.00;99.90;;;;;;5046730;28;20061;-81
2022/03/02 06:13:30;;;;;;;33.03;18.45;;;5.00;99.90;;;;;;5039251;28;20090;-80
2022/03/02 06:16:00;;;;;;;33.80;19.42;;;5.00;99.90;;;;;;5048373;28;20389;-80
2022/03/02 06:18:26;;;;;;;32.25;18.83;;;4.90;99.90;;;;;;5033636;28;20034;-80
2022/03/02 06:20:52;;;;;;;28.65;17.52;;;4.90;99.90;;;;;;5047497;28;20017;-79
2022/03/02 06:23:20;;;;;;;31.02;18.50;;;4.90;99.90;;;;;;5034355;28;20080;-80
2022/03/02 06:25:46;;;;;;;28.63;17.48;;;4.90;99.90;;;;;;5025809;28;20437;-80
2022/03/02 06:28:12;;;;;;;30.25;17.55;;;4.90;99.90;;;;;;5037044;28;20029;-79
2022/03/02 06:30:38;;;;;;;35.40;17.65;;;4.80;99.90;;;;;;5038252;28;20029;-79
2022/03/02 06:33:03;;;;;;;32.70;17.40;;;4.80;99.90;;;;;;5027252;28;20044;-80
2022/03/02 06:35:29;;;;;;;29.98;16.92;;;4.80;99.90;;;;;;5041574;28;20009;-79
2022/03/02 06:37:55;;;;;;;27.08;16.35;;;4.80;99.90;;;;;;5041700;28;20029;-79
2022/03/02 06:40:21;;;;;;;31.73;16.52;;;4.90;99.90;;;;;;5021707;28;20427;-79
2022/03/02 06:42:59;;;;;;;32.22;18.42;;;4.90;99.90;;;;;;5040668;28;20100;-78
2022/03/02 06:45:47;;;;;;;31.02;17.38;;;4.80;99.90;;;;;;5040750;28;20625;-78
2022/03/02 06:48:17;;;;;;;28.75;16.92;;;4.80;99.90;;;;;;5039658;28;20036;-80
2022/03/02 06:50:45;;;;;;;25.35;15.80;;;4.90;99.90;;;;;;5041146;28;20025;-79
2022/03/02 06:53:14;;;;;;;31.85;16.33;;;4.80;99.90;;;;;;5027613;28;20042;-79
2022/03/02 06:55:42;;;;;;;33.03;16.48;;;4.80;99.90;;;;;;5041582;28;20485;-78
2022/03/02 06:58:11;;;;;;;30.00;16.48;;;4.90;99.90;;;;;;5025048;28;20091;-78
2022/03/02 07:00:38;;;;;;;28.48;15.57;;;4.90;99.90;;;;;;5034859;28;20358;-78
2022/03/02 07:03:10;;;;;;;23.52;15.48;;;4.90;99.90;;;;;;5034433;28;20025;-79
2022/03/02 07:05:37;;;;;;;28.35;16.92;;;5.00;99.90;;;;;;5029647;28;20106;-79
2022/03/02 07:08:04;;;;;;;25.33;14.10;;;5.00;99.90;;;;;;5030750;28;20056;-79
2022/03/02 07:10:34;;;;;;;25.73;15.15;;;5.00;99.90;;;;;;5034535;28;20033;-79
2022/03/02 07:13:02;;;;;;;26.70;15.57;;;5.00;99.90;;;;;;5030652;28;20044;-79
2022/03/02 07:15:32;;;;;;;28.27;16.88;;;5.00;99.90;;;;;;5039121;28;20021;-79
2022/03/02 07:18:02;;;;;;;29.77;15.82;;;5.10;99.90;;;;;;5028922;28;20036;-79
2022/03/02 07:20:28;;;;;;;28.70;15.07;;;5.10;99.90;;;;;;5043391;28;20036;-79
2022/03/02 07:22:57;;;;;;;29.30;15.95;;;5.10;99.90;;;;;;5040990;28;20009;-79
2022/03/02 07:25:38;;;;;;;28.65;16.95;;;5.20;99.90;;;;;;5042980;28;20035;-79
2022/03/02 07:28:08;;;;;;;28.02;15.45;;;5.10;99.90;;;;;;5036443;28;20063;-79
2022/03/02 07:30:34;;;;;;;25.52;15.55;;;5.10;99.90;;;;;;5042250;28;20032;-80
2022/03/02 07:33:04;;;;;;;26.95;16.63;;;5.20;99.90;;;;;;5029006;28;20040;-80
2022/03/02 07:35:31;;;;;;;28.55;16.48;;;5.30;99.90;;;;;;5023713;28;20017;-80
2022/03/02 07:37:57;;;;;;;28.80;16.25;;;5.20;99.90;;;;;;5038911;28;20025;-80
2022/03/02 07:40:23;;;;;;;25.27;14.95;;;5.20;99.90;;;;;;5035069;28;20021;-80
2022/03/02 07:42:50;;;;;;;28.17;15.93;;;5.30;99.90;;;;;;5036068;28;20140;-80
2022/03/02 07:45:16;;;;;;;25.95;14.20;;;5.30;99.90;;;;;;5035448;28;20026;-79
2022/03/02 07:47:43;;;;;;;26.17;14.93;;;5.40;99.90;;;;;;5032571;28;20449;-80
2022/03/02 07:50:10;;;;;;;28.00;13.95;;;5.40;99.90;;;;;;5024330;28;20430;-79
2022/03/02 07:52:37;;;;;;;23.35;14.23;;;5.30;99.90;;;;;;5033608;28;20038;-80
2022/03/02 07:55:09;;;;;;;27.23;13.70;;;5.30;99.90;;;;;;5031561;28;20030;-80
2022/03/02 07:57:36;;;;;;;28.13;14.40;;;5.40;99.90;;;;;;5030383;28;20033;-80
2022/03/02 08:00:04;;;;;;;25.15;14.02;;;5.40;99.90;;;;;;5025347;28;20060;-79
2022/03/02 08:02:31;;;;;;;28.02;15.40;;;5.40;99.90;;;;;;5036202;28;20068;-80
2022/03/02 08:04:57;;;;;;;24.98;14.55;;;5.50;99.90;;;;;;5041682;28;20112;-79
2022/03/02 08:07:24;;;;;;;24.10;14.50;;;5.50;99.90;;;;;;5036164;28;20028;-79
2022/03/02 08:09:51;;;;;;;23.67;14.18;;;5.50;99.90;;;;;;5036368;28;20017;-79
2022/03/02 08:12:20;;;;;;;17.45;11.63;;;5.60;99.90;;;;;;5029214;28;20037;-79
2022/03/02 08:14:46;;;;;;;20.58;13.25;;;5.60;99.90;;;;;;5038084;28;20025;-80
2022/03/02 08:17:12;;;;;;;24.52;13.13;;;5.80;99.90;;;;;;5024498;28;20030;-80
2022/03/02 08:19:38;;;;;;;25.63;14.63;;;5.90;99.90;;;;;;5040329;28;20104;-80
2022/03/02 08:22:09;;;;;;;20.85;12.50;;;6.10;99.90;;;;;;5043062;28;20029;-82
2022/03/02 08:24:41;;;;;;;22.83;12.85;;;6.10;99.90;;;;;;5039551;28;20017;-81
2022/03/02 08:27:11;;;;;;;23.70;13.68;;;6.20;99.90;;;;;;5033496;28;20163;-79
2022/03/02 08:29:39;;;;;;;26.10;14.52;;;6.40;99.90;;;;;;5035208;28;20028;-79
2022/03/02 08:32:06;;;;;;;21.50;13.13;;;6.50;99.90;;;;;;5024610;28;20065;-78
2022/03/02 08:34:33;;;;;;;21.10;13.73;;;6.60;99.90;;;;;;5044827;28;20017;-79
2022/03/02 08:37:00;;;;;;;19.42;12.75;;;6.50;99.90;;;;;;5051741;28;20024;-79
2022/03/02 08:39:27;;;;;;;24.23;12.98;;;6.70;99.90;;;;;;5040732;28;20074;-80
2022/03/02 08:41:53;;;;;;;17.50;11.68;;;6.90;99.90;;;;;;5032451;28;20063;-79
2022/03/02 08:44:20;;;;;;;25.73;12.63;;;6.80;99.90;;;;;;5032399;28;20401;-79
2022/03/02 08:46:46;;;;;;;24.20;14.13;;;7.00;99.90;;;;;;5027440;28;20112;-80
2022/03/02 08:49:17;;;;;;;20.90;14.00;;;7.20;99.90;;;;;;5039491;28;20045;-80
2022/03/02 08:51:43;;;;;;;23.88;14.07;;;7.50;99.90;;;;;;5035529;28;20033;-80
2022/03/02 08:54:12;;;;;;;22.25;15.48;;;7.60;99.90;;;;;;5036325;28;20035;-80
2022/03/02 08:56:40;;;;;;;19.42;13.18;;;7.70;99.90;;;;;;5049764;28;20028;-80
2022/03/02 08:59:08;;;;;;;20.10;12.55;;;7.70;99.90;;;;;;5030994;28;20030;-80
2022/03/02 09:01:40;;;;;;;21.77;12.45;;;7.80;99.90;;;;;;5032404;28;20052;-80
2022/03/02 09:04:06;;;;;;;21.30;12.32;;;8.00;99.90;;;;;;5038341;28;20060;-80
2022/03/02 09:06:35;;;;;;;20.85;12.32;;;7.90;99.90;;;;;;5035531;28;20030;-80
2022/03/02 09:09:01;;;;;;;19.40;12.40;;;8.00;99.90;;;;;;5032946;28;20006;-80
2022/03/02 09:11:27;;;;;;;19.52;12.20;;;8.10;99.90;;;;;;5033207;28;20496;-80
2022/03/02 09:13:52;;;;;;;21.80;12.43;;;8.20;99.90;;;;;;5045582;28;20053;-81
2022/03/02 09:16:18;;;;;;;23.13;13.88;;;8.30;99.90;;;;;;5046796;28;20616;-81
2022/03/02 09:18:44;;;;;;;19.50;12.57;;;8.50;99.90;;;;;;5031977;28;20034;-82
2022/03/02 09:21:13;;;;;;;20.90;11.90;;;8.70;99.90;;;;;;5037338;28;20481;-81
2022/03/02 09:23:41;;;;;;;17.98;12.60;;;8.70;99.90;;;;;;5039031;28;20026;-81
2022/03/02 09:26:12;;;;;;;22.70;12.57;;;8.90;99.90;;;;;;5034933;28;20458;-80
2022/03/02 09:28:40;;;;;;;19.00;12.13;;;9.10;99.50;;;;;;5046883;28;20067;-82
2022/03/02 09:31:08;;;;;;;19.15;12.75;;;9.10;99.90;;;;;;5033231;28;20030;-81
2022/03/02 09:33:34;;;;;;;19.52;11.68;;;9.10;99.30;;;;;;5033404;28;20454;-81
2022/03/02 09:36:06;;;;;;;19.23;12.60;;;9.20;97.40;;;;;;5047341;28;20056;-82
2022/03/02 09:38:33;;;;;;;18.80;12.10;;;9.30;98.70;;;;;;5044170;28;20030;-81
2022/03/02 09:41:12;;;;;;;26.38;12.35;;;9.30;99.40;;;;;;5033213;28;20021;-81
2022/03/02 09:43:46;;;;;;;18.58;11.65;;;9.50;99.00;;;;;;5026749;28;20374;-81
2022/03/02 09:46:18;;;;;;;20.58;12.35;;;9.50;99.90;;;;;;5037439;28;20049;-81
2022/03/02 09:48:50;;;;;;;19.90;13.02;;;9.70;98.20;;;;;;5043714;28;20496;-81
2022/03/02 09:51:28;;;;;;;17.42;12.63;;;9.90;98.40;;;;;;5029304;28;20030;-81
2022/03/02 09:53:54;;;;;;;22.15;13.40;;;10.00;96.30;;;;;;5042235;28;20031;-82
2022/03/02 09:56:24;;;;;;;21.33;12.93;;;9.90;96.30;;;;;;5036639;28;20381;-82
2022/03/02 09:58:53;;;;;;;20.75;11.65;;;10.10;97.50;;;;;;5041707;28;20029;-82
2022/03/02 10:01:24;;;;;;;20.42;11.20;;;10.30;99.10;;;;;;5025379;28;20386;-81
2022/03/02 10:03:51;;;;;;;18.65;11.55;;;10.30;95.60;;;;;;5038499;28;20089;-81
2022/03/02 10:06:18;;;;;;;19.80;12.65;;;10.40;96.80;;;;;;5031380;28;20101;-83
2022/03/02 10:08:52;;;;;;;17.77;11.52;;;10.30;94.70;;;;;;5039696;28;20385;-81
2022/03/02 10:11:25;;;;;;;21.65;12.50;;;10.30;94.70;;;;;;5030899;28;20477;-81
2022/03/02 10:13:56;;;;;;;18.90;11.48;;;10.40;95.60;;;;;;5042767;28;20469;-83
2022/03/02 10:16:24;;;;;;;16.88;11.00;;;10.30;92.70;;;;;;5029780;28;20028;-81
2022/03/02 10:19:00;;;;;;;20.13;11.63;;;10.30;97.50;;;;;;5037246;28;20112;-83
2022/03/02 10:21:31;;;;;;;19.70;11.85;;;10.40;96.00;;;;;;5035228;28;20037;-83
2022/03/02 10:24:03;;;;;;;18.02;12.15;;;10.60;94.00;;;;;;5033289;28;20048;-83
2022/03/02 10:26:31;;;;;;;18.33;12.40;;;10.60;94.90;;;;;;5041786;28;20128;-84
2022/03/02 10:29:21;;;;;;;17.77;11.32;;;10.70;92.00;;;;;;5042406;28;20028;-83
2022/03/02 10:32:22;;;;;;;18.05;11.13;;;10.90;94.20;;;;;;5028284;28;20041;-82
2022/03/02 10:34:57;;;;;;;15.63;9.93;;;11.00;92.10;;;;;;5035650;28;20050;-83
2022/03/02 10:37:36;;;;;;;18.58;11.00;;;11.10;93.20;;;;;;5042338;28;20021;-83
2022/03/02 10:40:16;;;;;;;14.60;10.70;;;11.30;95.20;;;;;;5028812;28;20017;-83
2022/03/02 10:42:44;;;;;;;15.60;10.50;;;11.20;91.10;;;;;;5032809;28;20022;-83
2022/03/02 10:45:18;;;;;;;15.63;10.77;;;11.30;93.50;;;;;;5046197;28;20037;-81
2022/03/02 10:48:14;;;;;;;16.85;11.02;;;11.40;92.20;;;;;;5028835;28;20504;-83
2022/03/02 10:50:42;;;;;;;17.75;11.50;;;11.50;90.70;;;;;;5037209;28;20032;-84
2022/03/02 10:53:15;;;;;;;16.20;10.75;;;11.50;90.00;;;;;;5037893;28;20038;-82
2022/03/02 10:55:43;;;;;;;15.65;9.75;;;11.50;91.20;;;;;;5044384;28;20094;-84
2022/03/02 10:58:13;;;;;;;13.55;10.73;;;11.40;90.10;;;;;;5038433;28;20021;-81
2022/03/02 11:00:39;;;;;;;13.93;10.30;;;11.30;88.80;;;;;;5031814;28;20112;-83
2022/03/02 11:03:08;;;;;;;14.85;10.43;;;11.40;89.80;;;;;;5034061;28;20022;-82
2022/03/02 11:05:35;;;;;;;14.30;9.65;;;11.50;92.50;;;;;;5036295;28;20029;-82
2022/03/02 11:08:01;;;;;;;14.20;9.68;;;11.60;90.60;;;;;;5034314;28;20021;-82
2022/03/02 11:10:37;;;;;;;15.93;10.50;;;11.70;91.20;;;;;;5037704;28;20029;-82
2022/03/02 11:13:12;;;;;;;12.90;9.30;;;11.70;86.50;;;;;;5024307;28;20030;-84
2022/03/02 11:15:55;;;;;;;16.75;9.77;;;11.80;90.30;;;;;;5035999;28;20052;-83
2022/03/02 11:18:38;;;;;;;16.10;11.13;;;11.80;88.80;;;;;;5030182;28;20116;-82
2022/03/02 11:21:07;;;;;;;14.88;10.35;;;11.70;90.90;;;;;;5030298;28;20479;-83
2022/03/02 11:24:02;;;;;;;13.25;9.73;;;11.60;90.20;;;;;;5026581;28;20029;-84
2022/03/02 11:26:34;;;;;;;16.13;10.00;;;11.70;87.80;;;;;;5039721;28;20071;-81
2022/03/02 11:29:06;;;;;;;;;;;11.80;92.70;;;;;;5045996;28;20164;-79
2022/03/02 11:31:47;;;;;;;14.25;9.80;;;12.00;89.20;;;;;;5034210;28;19912;-83
2022/03/02 11:34:18;;;;;;;17.73;11.25;;;12.10;86.80;;;;;;5025259;28;20025;-83
2022/03/02 11:36:50;;;;;;;14.10;10.55;;;12.10;90.70;;;;;;5036480;28;20063;-83
2022/03/02 11:39:17;;;;;;;15.15;10.63;;;12.30;89.20;;;;;;5036731;28;20031;-83
2022/03/02 11:41:45;;;;;;;16.60;11.60;;;12.50;91.10;;;;;;5034193;28;20036;-82
2022/03/02 11:44:31;;;;;;;19.20;10.90;;;12.50;89.80;;;;;;5040376;28;20156;-82
2022/03/02 11:46:59;;;;;;;15.43;10.00;;;12.60;90.90;;;;;;5039503;28;20029;-82
2022/03/02 11:49:42;;;;;;;13.20;10.45;;;12.60;87.00;;;;;;5042714;28;20037;-82
2022/03/02 11:52:12;;;;;;;16.25;11.63;;;12.50;87.00;;;;;;5034576;28;20028;-85
2022/03/02 11:55:00;;;;;;;17.05;11.35;;;12.40;84.80;;;;;;5035484;28;20018;-80
2022/03/02 11:57:30;;;;;;;14.93;10.18;;;12.50;84.10;;;;;;5036722;28;20025;-83
2022/03/02 12:00:24;;;;;;;15.00;10.52;;;12.40;85.40;;;;;;5036974;28;20029;-83
2022/03/02 12:02:57;;;;;;;12.05;10.05;;;12.40;87.90;;;;;;5024759;28;20125;-85
2022/03/02 12:05:27;;;;;;;13.68;9.90;;;12.30;82.80;;;;;;5031384;28;20029;-83
2022/03/02 12:08:04;;;;;;;16.15;9.90;;;12.10;84.80;;;;;;5037310;28;20112;-84
2022/03/02 12:10:36;;;;;;;13.35;8.77;;;12.10;84.70;;;;;;5028443;28;20470;-86
2022/03/02 12:13:02;;;;;;;15.50;10.50;;;12.10;92.50;;;;;;5033692;28;20029;-86
2022/03/02 12:15:47;;;;;;;14.85;11.13;;;12.10;91.60;;;;;;5031707;28;20048;-84
2022/03/02 12:18:16;;;;;;;15.60;11.55;;;12.20;90.80;;;;;;5033091;28;20527;-86
2022/03/02 12:20:56;;;;;;;13.98;11.02;;;12.10;85.50;;;;;;5029703;28;20037;-84
2022/03/02 12:23:24;;;;;;;16.33;10.75;;;12.10;92.30;;;;;;5030821;28;20022;-83
2022/03/02 12:25:51;;;;;;;13.48;11.05;;;12.00;88.50;;;;;;5037800;28;20068;-85
2022/03/02 12:28:19;;;;;;;11.43;9.30;;;12.10;90.70;;;;;;5034576;28;20025;-84
2022/03/02 12:30:46;;;;;;;13.35;9.48;;;12.00;91.60;;;;;;5033403;28;20025;-84
2022/03/02 12:33:13;;;;;;;14.05;10.18;;;12.00;85.10;;;;;;5038563;28;20652;-84
2022/03/02 12:35:38;;;;;;;16.42;11.65;;;12.00;88.50;;;;;;5040699;28;20036;-83
2022/03/02 12:38:09;;;;;;;13.00;9.73;;;12.20;91.50;;;;;;5026227;28;20026;-82
2022/03/02 12:40:45;;;;;;;14.52;10.02;;;12.30;87.60;;;;;;5049110;28;20064;-83